createdAt,value
2022-09-18T00:01:48.231Z,3.60
2022-09-18T00:07:10.999Z,2.60
2022-09-18T00:12:30.494Z,3.10
2022-09-18T00:17:58.767Z,3.10
2022-09-18T00:23:30.656Z,2.70
2022-09-18T00:28:49.255Z,3.70
2022-09-18T00:34:17.754Z,3.00
2022-09-18T00:45:12.697Z,3.10
2022-09-18T00:50:32.943Z,3.20
2022-09-18T00:56:02.369Z,3.10
2022-09-18T01:01:13.101Z,3.20
2022-09-18T01:06:47.887Z,3.10
2022-09-18T01:12:05.981Z,2.70
2022-09-18T01:17:40.382Z,3.20
2022-09-18T01:23:03.013Z,2.50
2022-09-18T01:28:38.763Z,3.20
2022-09-18T01:34:03.541Z,3.10
2022-09-18T01:39:59.627Z,3.10
2022-09-18T01:45:33.220Z,2.00
2022-09-18T01:51:09.066Z,2.40
2022-09-18T01:56:40.515Z,2.60
2022-09-18T02:02:21.622Z,2.50
2022-09-18T02:07:57.781Z,2.30
2022-09-18T02:13:30.073Z,2.20
2022-09-18T02:18:53.249Z,2.50
2022-09-18T02:24:25.980Z,1.90
2022-09-18T02:29:54.184Z,2.50
2022-09-18T02:35:21.935Z,1.70
2022-09-18T02:40:58.104Z,2.00
2022-09-18T02:46:29.106Z,1.90
2022-09-18T02:52:04.329Z,2.00
2022-09-18T02:57:33.873Z,2.10
2022-09-18T03:03:01.682Z,2.40
2022-09-18T03:08:30.344Z,1.90
2022-09-18T03:13:57.850Z,2.40
2022-09-18T03:19:25.285Z,1.70
2022-09-18T03:24:52.772Z,1.90
2022-09-18T03:30:20.288Z,2.20
2022-09-18T03:35:44.321Z,1.60
2022-09-18T03:41:11.891Z,1.50
2022-09-18T03:46:39.785Z,2.00
2022-09-18T03:52:07.453Z,1.60
2022-09-18T03:57:34.870Z,1.70
2022-09-18T04:03:02.441Z,1.60
2022-09-18T04:08:35.862Z,1.80
2022-09-18T04:14:15.419Z,1.90
2022-09-18T04:19:42.748Z,2.00
2022-09-18T04:25:12.152Z,1.80
2022-09-18T04:30:30.518Z,2.20
2022-09-18T04:35:57.370Z,1.90
2022-09-18T04:41:15.186Z,2.00
2022-09-18T04:46:26.118Z,1.90
2022-09-18T04:51:53.646Z,2.10
2022-09-18T04:57:04.924Z,2.50
2022-09-18T05:02:12.498Z,2.00
2022-09-18T05:07:40.105Z,2.40
2022-09-18T05:13:07.566Z,2.50
2022-09-18T05:18:35.130Z,2.10
2022-09-18T05:24:06.171Z,2.80
2022-09-18T05:29:33.550Z,2.30
2022-09-18T05:34:50.894Z,2.90
2022-09-18T05:39:58.470Z,2.80
2022-09-18T05:45:28.180Z,3.30
2022-09-18T05:50:55.472Z,3.60
2022-09-18T05:56:22.838Z,3.90
2022-09-18T06:01:41.685Z,3.70
2022-09-18T06:06:58.484Z,4.50
2022-09-18T06:12:11.018Z,4.50
2022-09-18T06:17:24.355Z,4.50
2022-09-18T06:22:46.275Z,4.50
2022-09-18T06:28:08.350Z,4.50
2022-09-18T06:33:18.168Z,4.70
2022-09-18T06:38:44.975Z,4.40
2022-09-18T06:44:04.057Z,4.60
2022-09-18T06:49:20.184Z,3.90
2022-09-18T06:54:29.428Z,3.40
2022-09-18T06:59:47.841Z,3.10
2022-09-18T07:04:58.479Z,3.50
2022-09-18T07:10:26.364Z,4.20
2022-09-18T07:15:53.847Z,3.70
2022-09-18T07:21:15.376Z,3.50
2022-09-18T07:26:37.110Z,4.00
2022-09-18T07:31:47.547Z,3.60
2022-09-18T07:37:05.111Z,3.70
2022-09-18T07:42:16.014Z,4.40
2022-09-18T07:47:36.447Z,3.70
2022-09-18T07:53:05.928Z,3.10
2022-09-18T07:58:28.367Z,4.10
2022-09-18T08:03:51.906Z,4.90
2022-09-18T08:09:19.831Z,4.30
2022-09-18T08:14:47.572Z,4.80
2022-09-18T08:20:44.963Z,4.30
2022-09-18T08:26:32.194Z,5.00
2022-09-18T08:31:44.070Z,4.80
2022-09-18T08:37:13.251Z,5.60
2022-09-18T08:43:04.507Z,6.10
2022-09-18T08:48:36.384Z,5.40
2022-09-18T08:54:12.543Z,5.90
2022-09-18T08:59:53.458Z,5.80
2022-09-18T09:05:17.151Z,7.40
2022-09-18T09:10:56.472Z,6.20
2022-09-18T09:16:11.533Z,6.90
2022-09-18T09:21:52.659Z,5.90
2022-09-18T09:27:49.479Z,5.60
2022-09-18T09:33:25.517Z,5.30
2022-09-18T09:39:02.450Z,6.20
2022-09-18T09:44:31.330Z,5.10
2022-09-18T09:49:59.716Z,5.10
2022-09-18T09:55:41.534Z,4.30
2022-09-18T10:01:06.863Z,4.20
2022-09-18T10:06:43.105Z,5.00
2022-09-18T10:12:11.016Z,6.10
2022-09-18T10:17:43.363Z,6.00
2022-09-18T10:22:55.163Z,5.90
2022-09-18T10:28:03.076Z,7.10
2022-09-18T10:33:36.829Z,7.40
2022-09-18T10:38:48.448Z,6.10
2022-09-18T10:44:29.459Z,5.70
2022-09-18T10:50:06.568Z,6.20
2022-09-18T10:55:34.293Z,4.90
2022-09-18T11:01:26.685Z,5.50
2022-09-18T11:12:27.639Z,3.80
2022-09-18T11:18:19.348Z,3.80
2022-09-18T11:23:43.438Z,4.60
2022-09-18T11:29:53.335Z,6.90
2022-09-18T11:42:17.377Z,3.40
2022-09-18T11:48:30.889Z,3.40
2022-09-18T11:53:43.621Z,3.60
2022-09-18T11:58:59.131Z,7.90
2022-09-18T12:04:33.832Z,2.30
2022-09-18T12:10:34.448Z,2.50
2022-09-18T12:15:59.599Z,2.30
2022-09-18T12:21:16.418Z,1.20
2022-09-18T12:26:41.267Z,1.10
2022-09-18T12:45:08.628Z,0.70
2022-09-18T12:50:46.086Z,0.40
2022-09-18T12:56:09.710Z,4.40
2022-09-18T13:01:28.725Z,0.70
2022-09-18T13:06:43.195Z,0.70
2022-09-18T13:12:05.821Z,0.40
2022-09-18T13:17:22.553Z,0.50
2022-09-18T13:22:36.852Z,0.70
2022-09-18T13:27:44.807Z,0.80
2022-09-18T13:32:57.338Z,0.70
2022-09-18T13:38:22.351Z,1.30
2022-09-18T13:43:45.277Z,1.10
2022-09-18T13:49:04.654Z,1.50
2022-09-18T13:54:29.964Z,1.30
2022-09-18T14:00:03.740Z,1.80
2022-09-18T14:05:34.553Z,1.90
2022-09-18T14:11:16.410Z,2.20
2022-09-18T14:16:43.891Z,1.90
2022-09-18T14:22:05.404Z,3.30
2022-09-18T14:27:43.221Z,3.00
2022-09-18T14:33:23.435Z,2.90
2022-09-18T14:38:41.345Z,2.10
2022-09-18T14:43:56.656Z,1.90
2022-09-18T14:49:28.407Z,2.30
2022-09-18T14:54:49.742Z,2.70
2022-09-18T15:00:22.457Z,3.20
2022-09-18T15:05:42.719Z,7.50
2022-09-18T15:10:51.822Z,5.60
2022-09-18T15:16:04.556Z,8.40
2022-09-18T15:21:31.016Z,6.70
2022-09-18T15:26:44.836Z,5.80
2022-09-18T15:31:53.034Z,6.80
2022-09-18T15:42:26.938Z,7.90
2022-09-18T15:58:29.306Z,3.00
2022-09-18T16:04:21.585Z,3.20
2022-09-18T16:09:40.345Z,2.20
2022-09-18T16:15:15.774Z,2.00
2022-09-18T16:20:38.655Z,2.80
2022-09-18T16:26:11.894Z,1.80
2022-09-18T16:31:39.863Z,2.10
2022-09-18T16:37:12.508Z,1.50
2022-09-18T16:42:24.118Z,1.50
2022-09-18T16:47:52.463Z,2.00
2022-09-18T16:53:03.255Z,2.20
2022-09-18T16:58:31.385Z,1.90
2022-09-18T17:03:41.320Z,2.40
2022-09-18T17:08:49.378Z,2.30
2022-09-18T17:14:17.092Z,1.90
2022-09-18T17:19:45.688Z,2.20
2022-09-18T17:25:07.090Z,1.80
2022-09-18T17:30:17.741Z,2.50
2022-09-18T17:35:39.404Z,1.70
2022-09-18T17:41:08.882Z,1.60
2022-09-18T17:46:21.293Z,2.40
2022-09-18T17:51:34.189Z,2.80
2022-09-18T17:56:41.517Z,2.80
2022-09-18T18:01:51.848Z,3.00
2022-09-18T18:06:59.414Z,3.10
2022-09-18T18:12:21.440Z,19.30
2022-09-18T18:17:30.144Z,3.50
2022-09-18T18:22:50.406Z,3.10
2022-09-18T18:28:12.583Z,2.80
2022-09-18T18:33:29.176Z,5.50
2022-09-18T18:38:39.356Z,3.60
2022-09-18T18:44:08.416Z,3.30
2022-09-18T18:49:31.456Z,3.90
2022-09-18T18:54:40.059Z,3.30
2022-09-18T18:59:51.325Z,3.60
2022-09-18T19:05:23.659Z,3.90
2022-09-18T19:10:32.283Z,3.80
2022-09-18T19:15:44.260Z,3.50
2022-09-18T19:21:13.323Z,4.60
2022-09-18T19:26:32.655Z,5.10
2022-09-18T19:31:42.811Z,4.60
2022-09-18T19:36:56.541Z,5.30
2022-09-18T19:42:10.270Z,7.40
2022-09-18T19:47:22.387Z,4.60
2022-09-18T19:52:33.239Z,5.10
2022-09-18T19:57:46.547Z,4.90
2022-09-18T20:03:01.557Z,5.70
2022-09-18T20:08:16.397Z,6.10
2022-09-18T20:13:27.584Z,6.90
2022-09-18T20:18:35.567Z,9.40
2022-09-18T20:23:43.375Z,8.50
2022-09-18T20:29:00.429Z,7.10
2022-09-18T20:34:23.440Z,7.80
2022-09-18T20:39:40.741Z,9.80
2022-09-18T20:45:02.720Z,9.30
2022-09-18T20:50:31.859Z,8.20
2022-09-18T20:55:49.939Z,6.30
2022-09-18T21:01:14.424Z,7.40
2022-09-18T21:06:33.670Z,8.90
2022-09-18T21:11:55.246Z,10.50
2022-09-18T21:17:09.071Z,8.70
2022-09-18T21:22:31.935Z,9.00
2022-09-18T21:27:45.412Z,8.90
2022-09-18T21:33:11.367Z,9.60
2022-09-18T21:38:24.236Z,7.70
2022-09-18T21:43:38.417Z,9.20
2022-09-18T21:48:57.124Z,7.50
2022-09-18T21:54:22.770Z,8.20
2022-09-18T21:59:33.301Z,8.60
2022-09-18T22:04:46.207Z,8.40
2022-09-18T22:09:54.064Z,7.70
2022-09-18T22:15:13.751Z,9.20
2022-09-18T22:20:24.324Z,8.70
2022-09-18T22:25:32.136Z,7.60
2022-09-18T22:30:59.861Z,8.90
2022-09-18T22:36:19.176Z,7.60
2022-09-18T22:41:31.510Z,7.20
2022-09-18T22:46:49.866Z,6.90
2022-09-18T22:51:58.113Z,6.60
2022-09-18T22:57:14.858Z,5.50
2022-09-18T23:02:32.524Z,4.70
2022-09-18T23:07:43.510Z,4.50
2022-09-18T23:12:51.593Z,4.80
2022-09-18T23:18:02.209Z,4.20
2022-09-18T23:23:18.910Z,4.30
2022-09-18T23:28:40.947Z,4.30
2022-09-18T23:33:54.089Z,4.60
2022-09-18T23:39:18.528Z,4.00
2022-09-18T23:44:31.637Z,4.10
2022-09-18T23:49:49.514Z,3.20
2022-09-18T23:55:02.695Z,3.50
